sensor_id;sensor_type;location;lat;lon;timestamp;pressure;altitude;pressure_sealevel;temperature;humidity
34073;BME280;20346;52.702;16.886;2022-07-06T00:01:02;101205.41;;;15.70;53.48
34073;BME280;20346;52.702;16.886;2022-07-06T00:03:28;101209.41;;;15.67;53.52
34073;BME280;20346;52.702;16.886;2022-07-06T00:05:54;101217.39;;;15.61;53.62
34073;BME280;20346;52.702;16.886;2022-07-06T00:08:20;101213.20;;;15.55;53.72
34073;BME280;20346;52.702;16.886;2022-07-06T00:10:49;101209.78;;;15.53;53.86
34073;BME280;20346;52.702;16.886;2022-07-06T00:13:15;101210.23;;;15.53;53.94
34073;BME280;20346;52.702;16.886;2022-07-06T00:15:41;101213.36;;;15.49;54.03
34073;BME280;20346;52.702;16.886;2022-07-06T00:18:13;101197.48;;;15.42;54.13
34073;BME280;20346;52.702;16.886;2022-07-06T00:20:39;101208.19;;;15.48;54.19
34073;BME280;20346;52.702;16.886;2022-07-06T00:23:05;101210.95;;;15.42;54.25
34073;BME280;20346;52.702;16.886;2022-07-06T00:25:32;101200.61;;;15.39;54.35
34073;BME280;20346;52.702;16.886;2022-07-06T00:27:58;101199.72;;;15.40;54.43
34073;BME280;20346;52.702;16.886;2022-07-06T00:30:24;101199.68;;;15.41;54.47
34073;BME280;20346;52.702;16.886;2022-07-06T00:32:50;101201.55;;;15.36;54.55
34073;BME280;20346;52.702;16.886;2022-07-06T00:35:16;101200.41;;;15.30;54.63
34073;BME280;20346;52.702;16.886;2022-07-06T00:37:43;101203.13;;;15.26;54.70
34073;BME280;20346;52.702;16.886;2022-07-06T00:40:09;101203.58;;;15.25;54.85
34073;BME280;20346;52.702;16.886;2022-07-06T00:42:44;101202.47;;;15.17;54.82
34073;BME280;20346;52.702;16.886;2022-07-06T00:45:13;101205.27;;;15.10;54.92
34073;BME280;20346;52.702;16.886;2022-07-06T00:47:41;101203.66;;;15.06;55.04
34073;BME280;20346;52.702;16.886;2022-07-06T00:50:10;101205.41;;;15.05;55.21
34073;BME280;20346;52.702;16.886;2022-07-06T00:52:46;101204.52;;;15.06;55.24
34073;BME280;20346;52.702;16.886;2022-07-06T00:55:22;101206.38;;;15.01;55.32
34073;BME280;20346;52.702;16.886;2022-07-06T00:57:50;101202.92;;;15.01;55.41
34073;BME280;20346;52.702;16.886;2022-07-06T01:00:21;101202.11;;;14.99;55.55
34073;BME280;20346;52.702;16.886;2022-07-06T01:02:55;101200.32;;;15.01;55.58
34073;BME280;20346;52.702;16.886;2022-07-06T01:05:22;101207.77;;;14.98;55.70
34073;BME280;20346;52.702;16.886;2022-07-06T01:07:51;101210.70;;;15.02;55.76
34073;BME280;20346;52.702;16.886;2022-07-06T01:10:21;101218.92;;;15.03;55.74
34073;BME280;20346;52.702;16.886;2022-07-06T01:12:48;101213.37;;;14.99;55.84
34073;BME280;20346;52.702;16.886;2022-07-06T01:15:20;101206.16;;;14.93;55.80
34073;BME280;20346;52.702;16.886;2022-07-06T01:17:51;101207.27;;;14.82;55.90
34073;BME280;20346;52.702;16.886;2022-07-06T01:20:21;101213.96;;;14.75;55.94
34073;BME280;20346;52.702;16.886;2022-07-06T01:22:49;101207.12;;;14.71;56.59
34073;BME280;20346;52.702;16.886;2022-07-06T01:25:16;101215.81;;;14.70;56.10
34073;BME280;20346;52.702;16.886;2022-07-06T01:27:43;101212.91;;;14.64;56.10
34073;BME280;20346;52.702;16.886;2022-07-06T01:30:12;101211.75;;;14.58;56.20
34073;BME280;20346;52.702;16.886;2022-07-06T01:32:43;101212.33;;;14.53;56.24
34073;BME280;20346;52.702;16.886;2022-07-06T01:35:12;101213.88;;;14.42;56.33
34073;BME280;20346;52.702;16.886;2022-07-06T01:37:40;101210.41;;;14.40;56.49
34073;BME280;20346;52.702;16.886;2022-07-06T01:40:13;101212.57;;;14.41;56.56
34073;BME280;20346;52.702;16.886;2022-07-06T01:42:40;101216.06;;;14.40;56.59
34073;BME280;20346;52.702;16.886;2022-07-06T01:45:07;101207.13;;;14.32;56.66
34073;BME280;20346;52.702;16.886;2022-07-06T01:47:34;101211.06;;;14.31;56.79
34073;BME280;20346;52.702;16.886;2022-07-06T01:50:01;101206.23;;;14.33;56.86
34073;BME280;20346;52.702;16.886;2022-07-06T01:52:30;101210.61;;;14.31;56.89
34073;BME280;20346;52.702;16.886;2022-07-06T01:54:57;101210.20;;;14.30;56.90
34073;BME280;20346;52.702;16.886;2022-07-06T01:57:23;101204.66;;;14.26;57.02
34073;BME280;20346;52.702;16.886;2022-07-06T01:59:49;101204.27;;;14.23;57.04
34073;BME280;20346;52.702;16.886;2022-07-06T02:02:17;101201.87;;;14.14;57.00
34073;BME280;20346;52.702;16.886;2022-07-06T02:04:43;101207.77;;;14.03;57.13
34073;BME280;20346;52.702;16.886;2022-07-06T02:07:09;101211.26;;;14.02;57.33
34073;BME280;20346;52.702;16.886;2022-07-06T02:09:35;101211.26;;;14.02;57.33
34073;BME280;20346;52.702;16.886;2022-07-06T02:12:01;101214.17;;;14.06;57.37
34073;BME280;20346;52.702;16.886;2022-07-06T02:14:29;101210.63;;;14.10;57.42
34073;BME280;20346;52.702;16.886;2022-07-06T02:16:56;101213.19;;;14.12;57.42
34073;BME280;20346;52.702;16.886;2022-07-06T02:19:22;101216.36;;;14.05;57.38
34073;BME280;20346;52.702;16.886;2022-07-06T02:21:48;101216.61;;;13.95;57.47
34073;BME280;20346;52.702;16.886;2022-07-06T02:24:14;101215.88;;;13.88;57.57
34073;BME280;20346;52.702;16.886;2022-07-06T02:26:39;101220.70;;;13.85;57.73
34073;BME280;20346;52.702;16.886;2022-07-06T02:29:05;101223.83;;;13.80;57.82
34073;BME280;20346;52.702;16.886;2022-07-06T02:31:32;101215.62;;;13.79;57.93
34073;BME280;20346;52.702;16.886;2022-07-06T02:33:59;101225.09;;;13.82;58.02
34073;BME280;20346;52.702;16.886;2022-07-06T02:36:26;101220.34;;;13.81;58.04
34073;BME280;20346;52.702;16.886;2022-07-06T02:38:52;101218.54;;;13.85;58.19
34073;BME280;20346;52.702;16.886;2022-07-06T02:41:18;101218.48;;;13.88;58.20
34073;BME280;20346;52.702;16.886;2022-07-06T02:43:44;101214.58;;;13.88;58.17
34073;BME280;20346;52.702;16.886;2022-07-06T02:46:10;101218.16;;;13.82;58.22
34073;BME280;20346;52.702;16.886;2022-07-06T02:48:36;101217.73;;;13.81;58.35
34073;BME280;20346;52.702;16.886;2022-07-06T02:51:16;101216.06;;;13.79;58.45
34073;BME280;20346;52.702;16.886;2022-07-06T02:53:42;101217.73;;;13.81;58.58
34073;BME280;20346;52.702;16.886;2022-07-06T02:56:09;101225.57;;;13.80;58.62
34073;BME280;20346;52.702;16.886;2022-07-06T02:58:35;101228.08;;;13.84;58.75
34073;BME280;20346;52.702;16.886;2022-07-06T03:01:01;101234.40;;;13.94;58.83
34073;BME280;20346;52.702;16.886;2022-07-06T03:03:27;101239.06;;;13.99;58.82
34073;BME280;20346;52.702;16.886;2022-07-06T03:05:53;101237.70;;;14.02;58.94
34073;BME280;20346;52.702;16.886;2022-07-06T03:08:19;101240.12;;;14.09;59.01
34073;BME280;20346;52.702;16.886;2022-07-06T03:10:54;101236.59;;;14.12;59.04
34073;BME280;20346;52.702;16.886;2022-07-06T03:13:20;101238.31;;;14.13;59.08
34073;BME280;20346;52.702;16.886;2022-07-06T03:15:46;101237.42;;;14.14;59.15
34073;BME280;20346;52.702;16.886;2022-07-06T03:18:12;101236.53;;;14.15;59.22
34073;BME280;20346;52.702;16.886;2022-07-06T03:20:38;101229.55;;;14.17;59.28
34073;BME280;20346;52.702;16.886;2022-07-06T03:23:07;101215.83;;;14.10;59.38
34073;BME280;20346;52.702;16.886;2022-07-06T03:25:33;101237.20;;;14.24;59.47
34073;BME280;20346;52.702;16.886;2022-07-06T03:27:59;101235.42;;;14.27;59.55
34073;BME280;20346;52.702;16.886;2022-07-06T03:30:25;101235.77;;;14.31;59.62
34073;BME280;20346;52.702;16.886;2022-07-06T03:32:51;101235.70;;;14.34;59.69
34073;BME280;20346;52.702;16.886;2022-07-06T03:35:17;101235.64;;;14.37;59.74
34073;BME280;20346;52.702;16.886;2022-07-06T03:37:43;101242.94;;;14.40;59.80
34073;BME280;20346;52.702;16.886;2022-07-06T03:40:11;101238.52;;;14.45;59.89
34073;BME280;20346;52.702;16.886;2022-07-06T03:42:37;101243.22;;;14.49;59.90
34073;BME280;20346;52.702;16.886;2022-07-06T03:45:04;101240.14;;;14.51;59.94
34073;BME280;20346;52.702;16.886;2022-07-06T03:47:31;101231.41;;;14.53;60.03
34073;BME280;20346;52.702;16.886;2022-07-06T03:49:57;101230.82;;;14.58;60.12
34073;BME280;20346;52.702;16.886;2022-07-06T03:52:23;101239.39;;;14.64;60.12
34073;BME280;20346;52.702;16.886;2022-07-06T03:55:01;101229.76;;;14.67;60.15
34073;BME280;20346;52.702;16.886;2022-07-06T03:57:27;101234.48;;;14.69;60.20
34073;BME280;20346;52.702;16.886;2022-07-06T03:59:52;101232.30;;;14.70;60.18
34073;BME280;20346;52.702;16.886;2022-07-06T04:02:19;101236.98;;;14.74;60.22
34073;BME280;20346;52.702;16.886;2022-07-06T04:04:45;101231.81;;;14.72;60.28
34073;BME280;20346;52.702;16.886;2022-07-06T04:07:11;101227.53;;;14.70;60.28
34073;BME280;20346;52.702;16.886;2022-07-06T04:09:36;101231.03;;;14.69;60.37
34073;BME280;20346;52.702;16.886;2022-07-06T04:12:03;101227.13;;;14.69;60.49
34073;BME280;20346;52.702;16.886;2022-07-06T04:14:30;101230.23;;;14.84;60.66
34073;BME280;20346;52.702;16.886;2022-07-06T04:17:04;101226.70;;;15.05;60.83
34073;BME280;20346;52.702;16.886;2022-07-06T04:19:32;101237.70;;;15.32;60.80
34073;BME280;20346;52.702;16.886;2022-07-06T04:21:57;101232.88;;;15.51;60.76
34073;BME280;20346;52.702;16.886;2022-07-06T04:24:24;101229.94;;;15.63;60.70
34073;BME280;20346;52.702;16.886;2022-07-06T04:26:50;101232.66;;;15.75;60.72
34073;BME280;20346;52.702;16.886;2022-07-06T04:29:16;101228.95;;;15.83;60.76
34073;BME280;20346;52.702;16.886;2022-07-06T04:31:42;101216.64;;;15.88;60.80
34073;BME280;20346;52.702;16.886;2022-07-06T04:34:08;101221.19;;;15.97;60.82
34073;BME280;20346;52.702;16.886;2022-07-06T04:36:34;101221.38;;;16.05;60.89
34073;BME280;20346;52.702;16.886;2022-07-06T04:39:00;101220.22;;;16.14;60.88
34073;BME280;20346;52.702;16.886;2022-07-06T04:41:26;101222.11;;;16.23;60.90
34073;BME280;20346;52.702;16.886;2022-07-06T04:43:52;101220.13;;;16.32;60.91
34073;BME280;20346;52.702;16.886;2022-07-06T04:46:18;101225.53;;;16.40;60.93
34073;BME280;20346;52.702;16.886;2022-07-06T04:48:44;101221.33;;;16.49;60.97
34073;BME280;20346;52.702;16.886;2022-07-06T04:51:11;101223.16;;;16.61;60.99
34073;BME280;20346;52.702;16.886;2022-07-06T04:53:37;101216.30;;;16.71;61.00
34073;BME280;20346;52.702;16.886;2022-07-06T04:56:03;101214.25;;;16.81;61.04
34073;BME280;20346;52.702;16.886;2022-07-06T04:58:29;101209.09;;;16.93;61.06
34073;BME280;20346;52.702;16.886;2022-07-06T05:00:56;101214.20;;;17.09;61.09
34073;BME280;20346;52.702;16.886;2022-07-06T05:03:22;101213.11;;;17.28;61.55
34073;BME280;20346;52.702;16.886;2022-07-06T05:05:48;101214.24;;;17.45;61.05
34073;BME280;20346;52.702;16.886;2022-07-06T05:08:15;101210.25;;;17.72;61.17
34073;BME280;20346;52.702;16.886;2022-07-06T05:10:40;101208.88;;;18.20;61.30
34073;BME280;20346;52.702;16.886;2022-07-06T05:13:06;101206.84;;;18.72;61.24
34073;BME280;20346;52.702;16.886;2022-07-06T05:15:32;101214.96;;;19.28;61.10
34073;BME280;20346;52.702;16.886;2022-07-06T05:17:58;101210.77;;;19.75;60.80
34073;BME280;20346;52.702;16.886;2022-07-06T05:20:30;101208.40;;;19.98;60.74
34073;BME280;20346;52.702;16.886;2022-07-06T05:22:56;101208.05;;;20.33;60.73
34073;BME280;20346;52.702;16.886;2022-07-06T05:25:22;101212.36;;;20.63;60.60
34073;BME280;20346;52.702;16.886;2022-07-06T05:28:07;101204.17;;;20.86;60.56
34073;BME280;20346;52.702;16.886;2022-07-06T05:30:33;101203.80;;;21.02;60.40
34073;BME280;20346;52.702;16.886;2022-07-06T05:32:59;101208.02;;;21.24;60.37
34073;BME280;20346;52.702;16.886;2022-07-06T05:35:25;101204.23;;;21.29;60.26
34073;BME280;20346;52.702;16.886;2022-07-06T05:37:51;101206.41;;;21.54;60.45
34073;BME280;20346;52.702;16.886;2022-07-06T05:40:17;101203.64;;;21.97;60.32
34073;BME280;20346;52.702;16.886;2022-07-06T05:42:43;101201.51;;;22.44;60.21
34073;BME280;20346;52.702;16.886;2022-07-06T05:45:12;101210.50;;;22.94;60.07
34073;BME280;20346;52.702;16.886;2022-07-06T05:47:38;101209.20;;;23.38;59.74
34073;BME280;20346;52.702;16.886;2022-07-06T05:50:23;101210.23;;;23.50;59.42
34073;BME280;20346;52.702;16.886;2022-07-06T05:53:00;101203.49;;;23.74;59.47
34073;BME280;20346;52.702;16.886;2022-07-06T05:55:32;101198.24;;;24.16;59.44
34073;BME280;20346;52.702;16.886;2022-07-06T05:57:58;101207.94;;;24.63;59.17
34073;BME280;20346;52.702;16.886;2022-07-06T06:00:26;101200.30;;;25.05;58.93
34073;BME280;20346;52.702;16.886;2022-07-06T06:02:53;101199.94;;;25.55;58.73
34073;BME280;20346;52.702;16.886;2022-07-06T06:05:19;101203.34;;;25.83;58.30
34073;BME280;20346;52.702;16.886;2022-07-06T06:07:51;101201.98;;;25.77;57.86
34073;BME280;20346;52.702;16.886;2022-07-06T06:10:18;101203.97;;;25.48;57.83
34073;BME280;20346;52.702;16.886;2022-07-06T06:12:47;101205.55;;;25.13;57.78
34073;BME280;20346;52.702;16.886;2022-07-06T06:15:13;101208.63;;;24.80;57.74
34073;BME280;20346;52.702;16.886;2022-07-06T06:17:40;101202.80;;;24.48;57.49
34073;BME280;20346;52.702;16.886;2022-07-06T06:20:07;101208.16;;;24.12;57.55
34073;BME280;20346;52.702;16.886;2022-07-06T06:25:26;101189.06;;;23.66;57.36
34073;BME280;20346;52.702;16.886;2022-07-06T06:27:59;101200.09;;;23.65;57.22
34073;BME280;20346;52.702;16.886;2022-07-06T06:30:26;101206.50;;;23.54;57.11
34073;BME280;20346;52.702;16.886;2022-07-06T06:33:10;101206.36;;;23.49;56.95
34073;BME280;20346;52.702;16.886;2022-07-06T06:35:51;101211.47;;;23.37;56.75
34073;BME280;20346;52.702;16.886;2022-07-06T06:38:22;101212.28;;;23.24;56.68
34073;BME280;20346;52.702;16.886;2022-07-06T06:40:47;101214.59;;;23.07;56.46
34073;BME280;20346;52.702;16.886;2022-07-06T06:43:13;101209.83;;;22.84;56.56
34073;BME280;20346;52.702;16.886;2022-07-06T06:45:40;101208.77;;;22.63;56.63
34073;BME280;20346;52.702;16.886;2022-07-06T06:48:06;101205.08;;;22.43;56.66
34073;BME280;20346;52.702;16.886;2022-07-06T06:50:32;101206.89;;;22.27;56.74
34073;BME280;20346;52.702;16.886;2022-07-06T06:52:58;101213.69;;;22.15;56.87
34073;BME280;20346;52.702;16.886;2022-07-06T06:55:25;101211.33;;;22.02;56.88
34073;BME280;20346;52.702;16.886;2022-07-06T06:57:51;101215.30;;;21.85;56.91
34073;BME280;20346;52.702;16.886;2022-07-06T07:00:17;101211.73;;;21.70;56.95
34073;BME280;20346;52.702;16.886;2022-07-06T07:02:44;101217.56;;;21.51;57.02
34073;BME280;20346;52.702;16.886;2022-07-06T07:05:12;101219.28;;;21.34;57.11
34073;BME280;20346;52.702;16.886;2022-07-06T07:07:38;101214.98;;;21.25;57.25
34073;BME280;20346;52.702;16.886;2022-07-06T07:10:05;101213.86;;;21.11;57.25
34073;BME280;20346;52.702;16.886;2022-07-06T07:12:31;101212.77;;;20.98;57.37
34073;BME280;20346;52.702;16.886;2022-07-06T07:14:58;101217.55;;;20.90;57.53
34073;BME280;20346;52.702;16.886;2022-07-06T07:17:25;101216.00;;;20.86;58.13
34073;BME280;20346;52.702;16.886;2022-07-06T07:19:51;101210.23;;;20.79;57.67
34073;BME280;20346;52.702;16.886;2022-07-06T07:22:17;101211.69;;;20.76;57.82
34073;BME280;20346;52.702;16.886;2022-07-06T07:24:43;101209.13;;;20.75;57.87
34073;BME280;20346;52.702;16.886;2022-07-06T07:27:09;101221.81;;;20.75;57.93
34073;BME280;20346;52.702;16.886;2022-07-06T07:29:35;101216.87;;;20.78;58.10
34073;BME280;20346;52.702;16.886;2022-07-06T07:32:02;101218.63;;;20.86;58.18
34073;BME280;20346;52.702;16.886;2022-07-06T07:34:28;101221.98;;;21.07;58.46
34073;BME280;20346;52.702;16.886;2022-07-06T07:36:55;101209.69;;;21.33;58.57
34073;BME280;20346;52.702;16.886;2022-07-06T07:39:21;101206.99;;;21.76;58.55
34073;BME280;20346;52.702;16.886;2022-07-06T07:41:47;101216.05;;;22.04;58.45
34073;BME280;20346;52.702;16.886;2022-07-06T07:44:16;101224.97;;;22.01;57.78
34073;BME280;20346;52.702;16.886;2022-07-06T07:46:42;101225.72;;;21.79;57.71
34073;BME280;20346;52.702;16.886;2022-07-06T07:49:09;101221.27;;;21.55;57.73
34073;BME280;20346;52.702;16.886;2022-07-06T07:51:35;101233.70;;;21.27;57.44
34073;BME280;20346;52.702;16.886;2022-07-06T07:54:01;101235.12;;;20.98;56.94
34073;BME280;20346;52.702;16.886;2022-07-06T07:56:40;101243.81;;;20.64;57.09
34073;BME280;20346;52.702;16.886;2022-07-06T07:59:07;101250.19;;;20.50;57.15
34073;BME280;20346;52.702;16.886;2022-07-06T08:01:33;101251.86;;;20.32;56.76
34073;BME280;20346;52.702;16.886;2022-07-06T08:04:00;101249.75;;;20.22;56.82
34073;BME280;20346;52.702;16.886;2022-07-06T08:06:26;101252.94;;;20.09;56.47
34073;BME280;20346;52.702;16.886;2022-07-06T08:08:51;101254.66;;;20.00;56.64
34073;BME280;20346;52.702;16.886;2022-07-06T08:11:18;101255.92;;;19.92;56.33
34073;BME280;20346;52.702;16.886;2022-07-06T08:13:44;101260.01;;;19.78;56.29
34073;BME280;20346;52.702;16.886;2022-07-06T08:16:11;101264.57;;;19.75;56.37
34073;BME280;20346;52.702;16.886;2022-07-06T08:18:37;101262.21;;;19.69;56.19
34073;BME280;20346;52.702;16.886;2022-07-06T08:21:03;101262.61;;;19.60;56.11
34073;BME280;20346;52.702;16.886;2022-07-06T08:23:30;101264.97;;;19.56;56.10
34073;BME280;20346;52.702;16.886;2022-07-06T08:26:06;101266.67;;;19.57;56.08
34073;BME280;20346;52.702;16.886;2022-07-06T08:28:33;101261.42;;;19.57;55.97
34073;BME280;20346;52.702;16.886;2022-07-06T08:30:59;101257.03;;;19.57;55.92
34073;BME280;20346;52.702;16.886;2022-07-06T08:33:25;101255.06;;;19.62;55.88
34073;BME280;20346;52.702;16.886;2022-07-06T08:35:52;101258.73;;;19.68;55.77
34073;BME280;20346;52.702;16.886;2022-07-06T08:38:18;101258.47;;;19.74;55.68
34073;BME280;20346;52.702;16.886;2022-07-06T08:40:47;101259.28;;;19.85;55.70
34073;BME280;20346;52.702;16.886;2022-07-06T08:43:15;101253.09;;;19.96;55.54
34073;BME280;20346;52.702;16.886;2022-07-06T08:45:44;101252.80;;;20.12;55.38
34073;BME280;20346;52.702;16.886;2022-07-06T08:48:12;101246.53;;;20.34;55.49
34073;BME280;20346;52.702;16.886;2022-07-06T08:50:38;101249.83;;;20.58;55.44
34073;BME280;20346;52.702;16.886;2022-07-06T08:53:10;101251.42;;;20.88;55.27
34073;BME280;20346;52.702;16.886;2022-07-06T08:55:37;101253.47;;;21.08;55.23
34073;BME280;20346;52.702;16.886;2022-07-06T08:58:07;101255.14;;;21.28;55.03
34073;BME280;20346;52.702;16.886;2022-07-06T09:00:36;101252.62;;;21.34;55.03
34073;BME280;20346;52.702;16.886;2022-07-06T09:03:04;101258.74;;;21.43;54.91
34073;BME280;20346;52.702;16.886;2022-07-06T09:05:32;101256.41;;;21.54;54.84
34073;BME280;20346;52.702;16.886;2022-07-06T09:07:58;101261.91;;;21.67;54.82
34073;BME280;20346;52.702;16.886;2022-07-06T09:10:25;101252.36;;;21.82;54.39
34073;BME280;20346;52.702;16.886;2022-07-06T09:12:51;101253.77;;;21.96;54.65
34073;BME280;20346;52.702;16.886;2022-07-06T09:15:18;101248.18;;;22.10;54.50
34073;BME280;20346;52.702;16.886;2022-07-06T09:17:44;101243.27;;;22.20;54.43
34073;BME280;20346;52.702;16.886;2022-07-06T09:20:12;101242.25;;;22.23;54.27
34073;BME280;20346;52.702;16.886;2022-07-06T09:22:40;101244.11;;;22.21;54.21
34073;BME280;20346;52.702;16.886;2022-07-06T09:25:13;101239.78;;;22.20;54.05
34073;BME280;20346;52.702;16.886;2022-07-06T09:27:39;101238.38;;;22.21;53.86
34073;BME280;20346;52.702;16.886;2022-07-06T09:30:08;101235.06;;;22.18;53.69
34073;BME280;20346;52.702;16.886;2022-07-06T09:32:41;101240.63;;;22.20;53.69
34073;BME280;20346;52.702;16.886;2022-07-06T09:35:29;101237.11;;;22.28;53.61
34073;BME280;20346;52.702;16.886;2022-07-06T09:38:11;101239.40;;;22.19;53.27
34073;BME280;20346;52.702;16.886;2022-07-06T09:40:43;101242.80;;;22.21;53.14
34073;BME280;20346;52.702;16.886;2022-07-06T09:45:53;101238.59;;;22.25;53.03
34073;BME280;20346;52.702;16.886;2022-07-06T09:48:27;101241.36;;;22.31;52.90
34073;BME280;20346;52.702;16.886;2022-07-06T09:53:26;101236.86;;;22.33;52.54
34073;BME280;20346;52.702;16.886;2022-07-06T09:55:53;101248.12;;;22.28;52.35
34073;BME280;20346;52.702;16.886;2022-07-06T09:58:21;101245.27;;;22.24;51.84
34073;BME280;20346;52.702;16.886;2022-07-06T10:00:48;101239.15;;;22.23;51.63
34073;BME280;20346;52.702;16.886;2022-07-06T10:03:16;101243.95;;;22.24;51.80
34073;BME280;20346;52.702;16.886;2022-07-06T10:05:45;101236.21;;;22.21;51.57
34073;BME280;20346;52.702;16.886;2022-07-06T10:08:14;101238.30;;;22.23;51.60
34073;BME280;20346;52.702;16.886;2022-07-06T10:10:42;101235.06;;;22.18;51.22
34073;BME280;20346;52.702;16.886;2022-07-06T10:13:10;101237.02;;;22.14;51.18
34073;BME280;20346;52.702;16.886;2022-07-06T10:15:39;101238.80;;;22.13;51.03
34073;BME280;20346;52.702;16.886;2022-07-06T10:18:08;101233.14;;;22.12;50.70
34073;BME280;20346;52.702;16.886;2022-07-06T10:20:36;101237.09;;;22.12;50.83
34073;BME280;20346;52.702;16.886;2022-07-06T10:23:05;101232.84;;;22.10;50.65
34073;BME280;20346;52.702;16.886;2022-07-06T10:25:33;101237.17;;;22.11;50.43
34073;BME280;20346;52.702;16.886;2022-07-06T10:27:59;101231.74;;;22.14;50.57
34073;BME280;20346;52.702;16.886;2022-07-06T10:30:27;101227.45;;;22.20;50.21
34073;BME280;20346;52.702;16.886;2022-07-06T10:32:56;101219.97;;;22.12;50.28
34073;BME280;20346;52.702;16.886;2022-07-06T10:35:22;101214.92;;;22.17;50.31
34073;BME280;20346;52.702;16.886;2022-07-06T10:38:08;101217.05;;;22.26;50.24
34073;BME280;20346;52.702;16.886;2022-07-06T10:40:37;101216.33;;;22.31;50.12
34073;BME280;20346;52.702;16.886;2022-07-06T10:43:22;101222.84;;;22.32;50.00
34073;BME280;20346;52.702;16.886;2022-07-06T10:45:51;101219.98;;;22.28;49.94
34073;BME280;20346;52.702;16.886;2022-07-06T10:48:19;101223.47;;;22.29;49.93
34073;BME280;20346;52.702;16.886;2022-07-06T10:50:56;101217.98;;;22.25;49.76
34073;BME280;20346;52.702;16.886;2022-07-06T10:53:28;101219.50;;;22.13;49.25
34073;BME280;20346;52.702;16.886;2022-07-06T10:55:56;101214.34;;;22.03;49.23
34073;BME280;20346;52.702;16.886;2022-07-06T10:58:40;101218.69;;;22.04;49.24
34073;BME280;20346;52.702;16.886;2022-07-06T11:01:10;101221.23;;;22.05;49.09
34073;BME280;20346;52.702;16.886;2022-07-06T11:03:50;101221.70;;;21.96;48.71
34073;BME280;20346;52.702;16.886;2022-07-06T11:06:26;101222.41;;;21.91;48.82
34073;BME280;20346;52.702;16.886;2022-07-06T11:08:56;101223.26;;;21.92;48.68
34073;BME280;20346;52.702;16.886;2022-07-06T11:14:17;101216.84;;;21.89;48.39
34073;BME280;20346;52.702;16.886;2022-07-06T11:19:24;101223.65;;;22.01;48.03
34073;BME280;20346;52.702;16.886;2022-07-06T11:22:04;101230.75;;;21.99;47.66
34073;BME280;20346;52.702;16.886;2022-07-06T11:24:32;101229.44;;;21.99;47.86
34073;BME280;20346;52.702;16.886;2022-07-06T11:27:00;101231.00;;;21.95;47.50
34073;BME280;20346;52.702;16.886;2022-07-06T11:29:28;101228.52;;;21.92;47.45
34073;BME280;20346;52.702;16.886;2022-07-06T11:31:57;101233.87;;;21.90;47.35
34073;BME280;20346;52.702;16.886;2022-07-06T11:36:57;101227.75;;;21.90;46.94
34073;BME280;20346;52.702;16.886;2022-07-06T11:39:36;101228.83;;;21.94;46.78
34073;BME280;20346;52.702;16.886;2022-07-06T11:42:00;101230.83;;;21.98;46.76
34073;BME280;20346;52.702;16.886;2022-07-06T11:44:29;101227.91;;;22.04;46.57
34073;BME280;20346;52.702;16.886;2022-07-06T11:46:57;101214.53;;;22.16;46.21
34073;BME280;20346;52.702;16.886;2022-07-06T11:49:33;101209.31;;;22.23;46.25
34073;BME280;20346;52.702;16.886;2022-07-06T11:52:06;101208.68;;;22.26;46.22
34073;BME280;20346;52.702;16.886;2022-07-06T11:54:36;101200.61;;;22.29;46.02
34073;BME280;20346;52.702;16.886;2022-07-06T11:57:03;101207.11;;;22.31;45.72
34073;BME280;20346;52.702;16.886;2022-07-06T11:59:34;101208.30;;;22.25;44.26
34073;BME280;20346;52.702;16.886;2022-07-06T12:02:05;101212.75;;;22.16;45.55
34073;BME280;20346;52.702;16.886;2022-07-06T12:04:38;101222.30;;;22.10;45.35
34073;BME280;20346;52.702;16.886;2022-07-06T12:07:07;101221.87;;;22.02;44.85
34073;BME280;20346;52.702;16.886;2022-07-06T12:09:37;101215.58;;;21.96;45.27
34073;BME280;20346;52.702;16.886;2022-07-06T12:14:37;101221.86;;;21.77;44.66
34073;BME280;20346;52.702;16.886;2022-07-06T12:17:10;101227.91;;;21.71;44.64
34073;BME280;20346;52.702;16.886;2022-07-06T12:19:37;101225.90;;;21.67;44.64
34073;BME280;20346;52.702;16.886;2022-07-06T12:22:04;101220.95;;;21.61;44.39
34073;BME280;20346;52.702;16.886;2022-07-06T12:24:35;101208.97;;;21.56;44.22
34073;BME280;20346;52.702;16.886;2022-07-06T12:27:11;101215.40;;;21.50;44.29
34073;BME280;20346;52.702;16.886;2022-07-06T12:29:42;101220.66;;;21.59;44.36
34073;BME280;20346;52.702;16.886;2022-07-06T12:32:21;101224.04;;;21.69;44.17
34073;BME280;20346;52.702;16.886;2022-07-06T12:35:08;101232.00;;;21.76;44.03
34073;BME280;20346;52.702;16.886;2022-07-06T12:37:36;101232.08;;;21.75;43.93
34073;BME280;20346;52.702;16.886;2022-07-06T12:40:14;101235.72;;;21.72;43.83
34073;BME280;20346;52.702;16.886;2022-07-06T12:42:47;101233.70;;;21.77;43.78
34073;BME280;20346;52.702;16.886;2022-07-06T12:45:17;101237.49;;;21.80;43.49
34073;BME280;20346;52.702;16.886;2022-07-06T12:47:57;101240.20;;;21.79;43.38
34073;BME280;20346;52.702;16.886;2022-07-06T12:50:42;101239.20;;;21.73;42.30
34073;BME280;20346;52.702;16.886;2022-07-06T12:53:25;101231.33;;;21.64;43.00
34073;BME280;20346;52.702;16.886;2022-07-06T12:56:10;101234.42;;;21.64;43.10
34073;BME280;20346;52.702;16.886;2022-07-06T12:58:36;101232.02;;;21.68;42.89
34073;BME280;20346;52.702;16.886;2022-07-06T13:01:03;101241.98;;;21.78;43.06
34073;BME280;20346;52.702;16.886;2022-07-06T13:03:40;101236.37;;;21.85;42.59
34073;BME280;20346;52.702;16.886;2022-07-06T13:06:07;101231.76;;;21.81;42.47